sensor_id;sensor_type;location;lat;lon;timestamp;temperature;humidity
18894;DHT22;9579;49.488;8.226;2022-08-01T05:00:22;24.30;82.60
18894;DHT22;9579;49.488;8.226;2022-08-01T05:03:09;24.30;82.50
18894;DHT22;9579;49.488;8.226;2022-08-01T05:05:56;24.30;82.60
18894;DHT22;9579;49.488;8.226;2022-08-01T05:08:43;24.40;83.10
18894;DHT22;9579;49.488;8.226;2022-08-01T05:11:32;24.50;83.00
18894;DHT22;9579;49.488;8.226;2022-08-01T05:14:19;24.50;82.90
18894;DHT22;9579;49.488;8.226;2022-08-01T05:17:08;24.50;83.00
18894;DHT22;9579;49.488;8.226;2022-08-01T05:19:56;24.60;83.00
18894;DHT22;9579;49.488;8.226;2022-08-01T05:22:43;24.70;82.90
18894;DHT22;9579;49.488;8.226;2022-08-01T05:25:30;24.70;82.50
18894;DHT22;9579;49.488;8.226;2022-08-01T05:28:17;24.70;82.50
18894;DHT22;9579;49.488;8.226;2022-08-01T05:31:04;24.70;82.20
18894;DHT22;9579;49.488;8.226;2022-08-01T05:33:53;24.80;82.60
18894;DHT22;9579;49.488;8.226;2022-08-01T05:36:40;24.80;82.40
18894;DHT22;9579;49.488;8.226;2022-08-01T05:39:27;25.00;82.30
18894;DHT22;9579;49.488;8.226;2022-08-01T05:42:14;25.00;81.90
18894;DHT22;9579;49.488;8.226;2022-08-01T05:45:01;24.90;82.10
18894;DHT22;9579;49.488;8.226;2022-08-01T05:47:48;25.00;82.50
18894;DHT22;9579;49.488;8.226;2022-08-01T05:50:36;25.20;82.10
18894;DHT22;9579;49.488;8.226;2022-08-01T05:53:23;25.30;81.20
18894;DHT22;9579;49.488;8.226;2022-08-01T05:56:10;25.30;81.00
18894;DHT22;9579;49.488;8.226;2022-08-01T05:58:57;25.00;81.20
18894;DHT22;9579;49.488;8.226;2022-08-01T06:01:44;24.70;82.30
18894;DHT22;9579;49.488;8.226;2022-08-01T06:04:31;24.70;81.70
18894;DHT22;9579;49.488;8.226;2022-08-01T06:07:20;24.80;82.20
18894;DHT22;9579;49.488;8.226;2022-08-01T06:10:08;24.90;81.90
18894;DHT22;9579;49.488;8.226;2022-08-01T06:12:55;24.90;81.70
18894;DHT22;9579;49.488;8.226;2022-08-01T06:15:42;25.00;82.00
18894;DHT22;9579;49.488;8.226;2022-08-01T06:18:29;25.00;81.60
18894;DHT22;9579;49.488;8.226;2022-08-01T06:21:16;25.20;81.40
18894;DHT22;9579;49.488;8.226;2022-08-01T06:24:05;25.30;80.90
18894;DHT22;9579;49.488;8.226;2022-08-01T06:26:52;25.50;81.10
18894;DHT22;9579;49.488;8.226;2022-08-01T06:29:39;25.60;80.40
18894;DHT22;9579;49.488;8.226;2022-08-01T06:32:26;25.70;79.90
18894;DHT22;9579;49.488;8.226;2022-08-01T06:35:13;25.70;79.90
18894;DHT22;9579;49.488;8.226;2022-08-01T06:38:01;25.80;80.00
18894;DHT22;9579;49.488;8.226;2022-08-01T06:40:49;25.80;80.20
18894;DHT22;9579;49.488;8.226;2022-08-01T06:43:36;25.90;79.90
18894;DHT22;9579;49.488;8.226;2022-08-01T06:46:23;25.90;79.60
18894;DHT22;9579;49.488;8.226;2022-08-01T06:49:10;25.90;79.40
18894;DHT22;9579;49.488;8.226;2022-08-01T06:51:57;25.90;79.40
18894;DHT22;9579;49.488;8.226;2022-08-01T06:54:44;26.00;79.40
18894;DHT22;9579;49.488;8.226;2022-08-01T06:57:33;26.20;79.00
18894;DHT22;9579;49.488;8.226;2022-08-01T07:00:21;26.40;79.40
18894;DHT22;9579;49.488;8.226;2022-08-01T07:03:09;26.50;78.70
18894;DHT22;9579;49.488;8.226;2022-08-01T07:05:56;26.60;77.90
18894;DHT22;9579;49.488;8.226;2022-08-01T07:08:43;26.70;77.80
18894;DHT22;9579;49.488;8.226;2022-08-01T07:11:30;26.80;77.90
18894;DHT22;9579;49.488;8.226;2022-08-01T07:14:18;26.70;77.30
18894;DHT22;9579;49.488;8.226;2022-08-01T07:17:05;26.80;77.20
18894;DHT22;9579;49.488;8.226;2022-08-01T07:19:52;26.90;76.90
18894;DHT22;9579;49.488;8.226;2022-08-01T07:22:40;27.00;77.30
18894;DHT22;9579;49.488;8.226;2022-08-01T07:25:27;27.10;75.70
18894;DHT22;9579;49.488;8.226;2022-08-01T07:28:14;27.20;76.40
18894;DHT22;9579;49.488;8.226;2022-08-01T07:31:02;27.40;75.70
18894;DHT22;9579;49.488;8.226;2022-08-01T07:33:49;27.60;75.70
18894;DHT22;9579;49.488;8.226;2022-08-01T07:36:36;27.80;75.70
18894;DHT22;9579;49.488;8.226;2022-08-01T07:39:23;27.90;74.10
18894;DHT22;9579;49.488;8.226;2022-08-01T07:42:10;28.10;74.60
18894;DHT22;9579;49.488;8.226;2022-08-01T07:44:57;28.30;73.80
18894;DHT22;9579;49.488;8.226;2022-08-01T07:47:46;28.50;73.50
18894;DHT22;9579;49.488;8.226;2022-08-01T07:50:35;28.60;72.20
18894;DHT22;9579;49.488;8.226;2022-08-01T07:53:22;28.70;71.70
18894;DHT22;9579;49.488;8.226;2022-08-01T07:56:09;28.90;71.80
18894;DHT22;9579;49.488;8.226;2022-08-01T07:58:56;29.00;71.30
18894;DHT22;9579;49.488;8.226;2022-08-01T08:01:43;29.10;71.30
18894;DHT22;9579;49.488;8.226;2022-08-01T08:04:31;29.20;71.00
18894;DHT22;9579;49.488;8.226;2022-08-01T08:07:18;29.30;71.70
18894;DHT22;9579;49.488;8.226;2022-08-01T08:10:06;29.40;70.70
18894;DHT22;9579;49.488;8.226;2022-08-01T08:12:53;29.60;69.10
18894;DHT22;9579;49.488;8.226;2022-08-01T08:15:40;29.70;69.80
18894;DHT22;9579;49.488;8.226;2022-08-01T08:18:27;29.70;69.80
18894;DHT22;9579;49.488;8.226;2022-08-01T08:21:15;29.80;69.00
18894;DHT22;9579;49.488;8.226;2022-08-01T08:24:03;29.70;69.50
18894;DHT22;9579;49.488;8.226;2022-08-01T08:27:09;29.80;69.00
18894;DHT22;9579;49.488;8.226;2022-08-01T08:29:57;29.80;69.80
18894;DHT22;9579;49.488;8.226;2022-08-01T08:32:44;29.90;69.60
18894;DHT22;9579;49.488;8.226;2022-08-01T08:35:31;29.80;68.50
18894;DHT22;9579;49.488;8.226;2022-08-01T08:38:19;29.80;68.60
18894;DHT22;9579;49.488;8.226;2022-08-01T08:41:06;29.90;68.50
18894;DHT22;9579;49.488;8.226;2022-08-01T08:43:53;29.90;68.40
18894;DHT22;9579;49.488;8.226;2022-08-01T08:46:47;30.00;68.20
18894;DHT22;9579;49.488;8.226;2022-08-01T08:49:35;30.00;68.10
18894;DHT22;9579;49.488;8.226;2022-08-01T08:52:23;30.00;68.10
18894;DHT22;9579;49.488;8.226;2022-08-01T08:55:12;29.90;68.70
18894;DHT22;9579;49.488;8.226;2022-08-01T08:58:01;29.80;69.00
18894;DHT22;9579;49.488;8.226;2022-08-01T09:00:52;29.70;69.50
18894;DHT22;9579;49.488;8.226;2022-08-01T09:03:40;29.50;69.70
18894;DHT22;9579;49.488;8.226;2022-08-01T09:06:27;29.60;70.20
18894;DHT22;9579;49.488;8.226;2022-08-01T09:09:15;29.70;70.00
18894;DHT22;9579;49.488;8.226;2022-08-01T09:12:04;29.80;70.20
18894;DHT22;9579;49.488;8.226;2022-08-01T09:14:51;29.80;70.50
18894;DHT22;9579;49.488;8.226;2022-08-01T09:17:40;29.80;70.00
18894;DHT22;9579;49.488;8.226;2022-08-01T09:20:27;29.80;70.40
18894;DHT22;9579;49.488;8.226;2022-08-01T09:23:32;29.80;70.40
18894;DHT22;9579;49.488;8.226;2022-08-01T09:26:21;29.80;70.10
18894;DHT22;9579;49.488;8.226;2022-08-01T09:29:20;29.70;70.40
18894;DHT22;9579;49.488;8.226;2022-08-01T09:32:08;29.70;69.90
18894;DHT22;9579;49.488;8.226;2022-08-01T09:34:55;29.70;69.50
18894;DHT22;9579;49.488;8.226;2022-08-01T09:37:42;29.50;71.00
18894;DHT22;9579;49.488;8.226;2022-08-01T09:40:47;29.50;70.20
18894;DHT22;9579;49.488;8.226;2022-08-01T09:43:34;29.60;70.10
18894;DHT22;9579;49.488;8.226;2022-08-01T09:46:23;29.60;69.60
18894;DHT22;9579;49.488;8.226;2022-08-01T09:49:10;29.50;69.60
18894;DHT22;9579;49.488;8.226;2022-08-01T09:51:58;29.50;70.20
18894;DHT22;9579;49.488;8.226;2022-08-01T09:54:52;29.40;70.90
18894;DHT22;9579;49.488;8.226;2022-08-01T09:57:39;29.40;71.20
18894;DHT22;9579;49.488;8.226;2022-08-01T10:00:27;29.40;71.20
18894;DHT22;9579;49.488;8.226;2022-08-01T10:03:24;29.30;70.80
18894;DHT22;9579;49.488;8.226;2022-08-01T10:06:29;29.40;70.40
18894;DHT22;9579;49.488;8.226;2022-08-01T10:09:27;29.50;70.50
18894;DHT22;9579;49.488;8.226;2022-08-01T10:12:16;29.50;70.30
18894;DHT22;9579;49.488;8.226;2022-08-01T10:15:04;29.40;70.70
18894;DHT22;9579;49.488;8.226;2022-08-01T10:17:55;29.30;70.80
18894;DHT22;9579;49.488;8.226;2022-08-01T10:20:45;29.20;71.80
18894;DHT22;9579;49.488;8.226;2022-08-01T10:23:34;29.20;71.40
18894;DHT22;9579;49.488;8.226;2022-08-01T10:26:24;29.20;71.00
18894;DHT22;9579;49.488;8.226;2022-08-01T10:29:12;29.20;71.00
18894;DHT22;9579;49.488;8.226;2022-08-01T10:31:59;29.20;71.20
18894;DHT22;9579;49.488;8.226;2022-08-01T10:34:46;29.20;70.80
18894;DHT22;9579;49.488;8.226;2022-08-01T10:37:36;29.20;71.50
18894;DHT22;9579;49.488;8.226;2022-08-01T10:40:24;29.10;71.50
18894;DHT22;9579;49.488;8.226;2022-08-01T10:43:13;29.20;71.60
18894;DHT22;9579;49.488;8.226;2022-08-01T10:46:02;29.20;71.30
18894;DHT22;9579;49.488;8.226;2022-08-01T10:48:55;29.40;71.00
18894;DHT22;9579;49.488;8.226;2022-08-01T10:51:43;29.50;71.20
18894;DHT22;9579;49.488;8.226;2022-08-01T10:54:39;29.60;70.70
18894;DHT22;9579;49.488;8.226;2022-08-01T10:57:41;29.60;69.80
18894;DHT22;9579;49.488;8.226;2022-08-01T11:00:28;29.30;69.90
18894;DHT22;9579;49.488;8.226;2022-08-01T11:03:15;29.20;70.40
18894;DHT22;9579;49.488;8.226;2022-08-01T11:06:22;29.30;71.30
18894;DHT22;9579;49.488;8.226;2022-08-01T11:09:26;29.30;71.60
18894;DHT22;9579;49.488;8.226;2022-08-01T11:12:16;29.30;71.40
18894;DHT22;9579;49.488;8.226;2022-08-01T11:15:21;29.30;71.10
18894;DHT22;9579;49.488;8.226;2022-08-01T11:18:30;29.30;71.00
18894;DHT22;9579;49.488;8.226;2022-08-01T11:21:17;29.40;71.00
18894;DHT22;9579;49.488;8.226;2022-08-01T11:24:05;29.30;71.60
18894;DHT22;9579;49.488;8.226;2022-08-01T11:27:16;29.40;71.50
18894;DHT22;9579;49.488;8.226;2022-08-01T11:30:22;29.50;70.30
18894;DHT22;9579;49.488;8.226;2022-08-01T11:33:11;29.50;70.70
18894;DHT22;9579;49.488;8.226;2022-08-01T11:36:17;29.60;71.00
18894;DHT22;9579;49.488;8.226;2022-08-01T11:39:18;29.80;70.90
18894;DHT22;9579;49.488;8.226;2022-08-01T11:42:19;29.80;70.70
18894;DHT22;9579;49.488;8.226;2022-08-01T11:45:07;29.90;70.40
18894;DHT22;9579;49.488;8.226;2022-08-01T11:47:55;30.10;70.50
18894;DHT22;9579;49.488;8.226;2022-08-01T11:50:42;30.20;70.20
18894;DHT22;9579;49.488;8.226;2022-08-01T11:53:29;30.40;69.50
18894;DHT22;9579;49.488;8.226;2022-08-01T11:56:19;30.50;69.30
18894;DHT22;9579;49.488;8.226;2022-08-01T11:59:07;30.70;68.40
18894;DHT22;9579;49.488;8.226;2022-08-01T12:01:54;30.90;67.60
18894;DHT22;9579;49.488;8.226;2022-08-01T12:04:46;31.00;67.30
18894;DHT22;9579;49.488;8.226;2022-08-01T12:07:36;31.20;68.50
18894;DHT22;9579;49.488;8.226;2022-08-01T12:10:25;31.30;67.30
18894;DHT22;9579;49.488;8.226;2022-08-01T12:13:12;31.40;65.90
18894;DHT22;9579;49.488;8.226;2022-08-01T12:16:06;31.40;65.80
18894;DHT22;9579;49.488;8.226;2022-08-01T12:18:53;31.50;65.20
18894;DHT22;9579;49.488;8.226;2022-08-01T12:21:41;31.60;65.80
18894;DHT22;9579;49.488;8.226;2022-08-01T12:24:28;31.70;65.50
18894;DHT22;9579;49.488;8.226;2022-08-01T12:27:24;31.90;64.20
18894;DHT22;9579;49.488;8.226;2022-08-01T12:30:13;32.00;63.40
18894;DHT22;9579;49.488;8.226;2022-08-01T12:33:03;32.10;62.20
18894;DHT22;9579;49.488;8.226;2022-08-01T12:35:50;32.30;62.00
18894;DHT22;9579;49.488;8.226;2022-08-01T12:38:38;32.60;61.00
18894;DHT22;9579;49.488;8.226;2022-08-01T12:41:27;32.90;60.60
18894;DHT22;9579;49.488;8.226;2022-08-01T12:44:15;33.00;60.90
18894;DHT22;9579;49.488;8.226;2022-08-01T12:47:02;32.80;60.80
18894;DHT22;9579;49.488;8.226;2022-08-01T12:49:52;32.70;60.90
18894;DHT22;9579;49.488;8.226;2022-08-01T12:52:39;32.50;59.80
18894;DHT22;9579;49.488;8.226;2022-08-01T12:55:27;32.50;60.90
18894;DHT22;9579;49.488;8.226;2022-08-01T12:58:17;32.70;61.70
18894;DHT22;9579;49.488;8.226;2022-08-01T13:01:06;32.80;60.40
18894;DHT22;9579;49.488;8.226;2022-08-01T13:03:59;32.90;60.30
18894;DHT22;9579;49.488;8.226;2022-08-01T13:06:51;33.20;59.50
18894;DHT22;9579;49.488;8.226;2022-08-01T13:09:49;33.10;60.10
18894;DHT22;9579;49.488;8.226;2022-08-01T13:12:36;33.10;60.70
18894;DHT22;9579;49.488;8.226;2022-08-01T13:15:26;33.10;60.30
18894;DHT22;9579;49.488;8.226;2022-08-01T13:18:24;33.20;59.10
18894;DHT22;9579;49.488;8.226;2022-08-01T13:21:13;33.30;59.50
18894;DHT22;9579;49.488;8.226;2022-08-01T13:24:03;33.30;58.80
18894;DHT22;9579;49.488;8.226;2022-08-01T13:26:54;33.30;58.60
18894;DHT22;9579;49.488;8.226;2022-08-01T13:29:44;33.50;59.00
18894;DHT22;9579;49.488;8.226;2022-08-01T13:32:32;33.50;58.40
18894;DHT22;9579;49.488;8.226;2022-08-01T13:35:20;33.50;57.00
18894;DHT22;9579;49.488;8.226;2022-08-01T13:38:07;33.60;57.40
18894;DHT22;9579;49.488;8.226;2022-08-01T13:40:59;33.90;57.20
18894;DHT22;9579;49.488;8.226;2022-08-01T13:43:46;34.10;57.60
18894;DHT22;9579;49.488;8.226;2022-08-01T13:46:33;34.20;56.70
18894;DHT22;9579;49.488;8.226;2022-08-01T13:49:20;34.10;56.10
18894;DHT22;9579;49.488;8.226;2022-08-01T13:52:07;33.70;55.40
18894;DHT22;9579;49.488;8.226;2022-08-01T13:54:54;33.80;56.60
18894;DHT22;9579;49.488;8.226;2022-08-01T13:57:44;33.90;57.70
18894;DHT22;9579;49.488;8.226;2022-08-01T14:00:33;33.90;56.70
18894;DHT22;9579;49.488;8.226;2022-08-01T14:03:20;33.90;56.70
18894;DHT22;9579;49.488;8.226;2022-08-01T14:06:08;33.70;56.20
18894;DHT22;9579;49.488;8.226;2022-08-01T14:08:55;33.80;56.70
18894;DHT22;9579;49.488;8.226;2022-08-01T14:11:42;33.80;56.60
18894;DHT22;9579;49.488;8.226;2022-08-01T14:14:30;33.70;55.90
18894;DHT22;9579;49.488;8.226;2022-08-01T14:17:17;33.50;55.40
18894;DHT22;9579;49.488;8.226;2022-08-01T14:20:05;32.90;56.60
18894;DHT22;9579;49.488;8.226;2022-08-01T14:22:52;32.60;56.50
18894;DHT22;9579;49.488;8.226;2022-08-01T14:25:40;32.60;56.50
18894;DHT22;9579;49.488;8.226;2022-08-01T14:28:27;32.40;57.40
18894;DHT22;9579;49.488;8.226;2022-08-01T14:31:17;32.40;57.70
18894;DHT22;9579;49.488;8.226;2022-08-01T14:34:04;32.30;57.50
18894;DHT22;9579;49.488;8.226;2022-08-01T14:36:51;32.10;58.00
18894;DHT22;9579;49.488;8.226;2022-08-01T14:39:39;32.20;57.60
18894;DHT22;9579;49.488;8.226;2022-08-01T14:42:26;32.00;58.40
18894;DHT22;9579;49.488;8.226;2022-08-01T14:45:13;32.00;58.30
18894;DHT22;9579;49.488;8.226;2022-08-01T14:48:02;31.60;58.40
18894;DHT22;9579;49.488;8.226;2022-08-01T14:50:49;31.20;59.60
18894;DHT22;9579;49.488;8.226;2022-08-01T14:53:36;31.20;60.50
18894;DHT22;9579;49.488;8.226;2022-08-01T14:56:24;31.10;59.40
18894;DHT22;9579;49.488;8.226;2022-08-01T14:59:11;30.90;59.90
18894;DHT22;9579;49.488;8.226;2022-08-01T15:01:58;30.70;61.60
18894;DHT22;9579;49.488;8.226;2022-08-01T15:04:47;30.60;60.60
18894;DHT22;9579;49.488;8.226;2022-08-01T15:07:35;30.30;62.10
18894;DHT22;9579;49.488;8.226;2022-08-01T15:10:22;30.20;62.80
18894;DHT22;9579;49.488;8.226;2022-08-01T15:13:09;30.40;62.60
18894;DHT22;9579;49.488;8.226;2022-08-01T15:15:56;30.70;62.70
18894;DHT22;9579;49.488;8.226;2022-08-01T15:18:43;30.60;61.80
18894;DHT22;9579;49.488;8.226;2022-08-01T15:21:32;30.50;62.40
18894;DHT22;9579;49.488;8.226;2022-08-01T15:24:19;30.50;62.30
18894;DHT22;9579;49.488;8.226;2022-08-01T15:27:06;30.30;62.30
18894;DHT22;9579;49.488;8.226;2022-08-01T15:29:53;30.30;62.90
18894;DHT22;9579;49.488;8.226;2022-08-01T15:32:40;30.10;63.10
18894;DHT22;9579;49.488;8.226;2022-08-01T15:35:27;30.00;61.80
18894;DHT22;9579;49.488;8.226;2022-08-01T15:38:16;29.90;62.70
18894;DHT22;9579;49.488;8.226;2022-08-01T15:41:04;30.00;63.20
18894;DHT22;9579;49.488;8.226;2022-08-01T15:43:51;30.00;63.00
18894;DHT22;9579;49.488;8.226;2022-08-01T15:46:39;29.90;62.30
18894;DHT22;9579;49.488;8.226;2022-08-01T15:49:26;29.80;62.90
18894;DHT22;9579;49.488;8.226;2022-08-01T15:52:14;29.60;63.20
18894;DHT22;9579;49.488;8.226;2022-08-01T15:55:03;29.50;63.30
18894;DHT22;9579;49.488;8.226;2022-08-01T15:57:50;29.40;64.30
18894;DHT22;9579;49.488;8.226;2022-08-01T16:00:37;29.50;64.10
18894;DHT22;9579;49.488;8.226;2022-08-01T16:03:24;29.50;63.60
18894;DHT22;9579;49.488;8.226;2022-08-01T16:06:12;29.40;63.80
18894;DHT22;9579;49.488;8.226;2022-08-01T16:08:59;29.50;63.50
18894;DHT22;9579;49.488;8.226;2022-08-01T16:11:47;29.60;63.60
18894;DHT22;9579;49.488;8.226;2022-08-01T16:14:34;29.50;63.80
18894;DHT22;9579;49.488;8.226;2022-08-01T16:17:21;29.40;63.70
18894;DHT22;9579;49.488;8.226;2022-08-01T16:20:09;29.50;64.50
18894;DHT22;9579;49.488;8.226;2022-08-01T16:22:56;29.30;64.80
18894;DHT22;9579;49.488;8.226;2022-08-01T16:25:43;29.10;65.20
18894;DHT22;9579;49.488;8.226;2022-08-01T16:28:32;29.10;65.80
18894;DHT22;9579;49.488;8.226;2022-08-01T16:31:20;29.10;65.20
18894;DHT22;9579;49.488;8.226;2022-08-01T16:34:07;28.90;65.70
18894;DHT22;9579;49.488;8.226;2022-08-01T16:36:54;28.80;65.80
18894;DHT22;9579;49.488;8.226;2022-08-01T16:39:41;28.80;66.50
18894;DHT22;9579;49.488;8.226;2022-08-01T16:42:30;28.90;66.30
18894;DHT22;9579;49.488;8.226;2022-08-01T16:45:18;28.90;65.40
18894;DHT22;9579;49.488;8.226;2022-08-01T16:48:06;29.00;65.30
18894;DHT22;9579;49.488;8.226;2022-08-01T16:50:52;28.80;65.50
18894;DHT22;9579;49.488;8.226;2022-08-01T16:53:39;28.60;65.80
18894;DHT22;9579;49.488;8.226;2022-08-01T16:56:28;28.50;66.20
18894;DHT22;9579;49.488;8.226;2022-08-01T16:59:15;28.40;66.60
18894;DHT22;9579;49.488;8.226;2022-08-01T17:02:03;28.30;67.20
18894;DHT22;9579;49.488;8.226;2022-08-01T17:04:50;28.30;67.40
18894;DHT22;9579;49.488;8.226;2022-08-01T17:07:39;28.20;67.70
18894;DHT22;9579;49.488;8.226;2022-08-01T17:10:26;28.30;67.40
18894;DHT22;9579;49.488;8.226;2022-08-01T17:13:13;28.30;67.90
18894;DHT22;9579;49.488;8.226;2022-08-01T17:16:00;28.40;67.70
18894;DHT22;9579;49.488;8.226;2022-08-01T17:18:49;28.60;67.70
18894;DHT22;9579;49.488;8.226;2022-08-01T17:21:36;28.70;67.00
18894;DHT22;9579;49.488;8.226;2022-08-01T17:24:23;28.70;67.00
18894;DHT22;9579;49.488;8.226;2022-08-01T17:27:10;28.60;67.20
18894;DHT22;9579;49.488;8.226;2022-08-01T17:29:57;28.40;67.70
18894;DHT22;9579;49.488;8.226;2022-08-01T17:32:44;28.40;68.00
18894;DHT22;9579;49.488;8.226;2022-08-01T17:35:34;28.60;68.70
18894;DHT22;9579;49.488;8.226;2022-08-01T17:38:21;28.60;67.10
18894;DHT22;9579;49.488;8.226;2022-08-01T17:41:08;28.80;67.00
18894;DHT22;9579;49.488;8.226;2022-08-01T17:43:55;28.70;67.20
18894;DHT22;9579;49.488;8.226;2022-08-01T17:46:42;28.70;66.50
18894;DHT22;9579;49.488;8.226;2022-08-01T17:49:29;28.80;66.80
18894;DHT22;9579;49.488;8.226;2022-08-01T17:52:18;28.90;66.50
18894;DHT22;9579;49.488;8.226;2022-08-01T17:55:07;29.00;67.00
18894;DHT22;9579;49.488;8.226;2022-08-01T17:58:13;29.00;67.10
18894;DHT22;9579;49.488;8.226;2022-08-01T18:01:02;29.00;66.60
18894;DHT22;9579;49.488;8.226;2022-08-01T18:03:49;29.10;66.90
18894;DHT22;9579;49.488;8.226;2022-08-01T18:06:37;29.20;67.50
18894;DHT22;9579;49.488;8.226;2022-08-01T18:09:27;29.20;68.20
18894;DHT22;9579;49.488;8.226;2022-08-01T18:12:17;29.30;68.90
18894;DHT22;9579;49.488;8.226;2022-08-01T18:15:05;29.20;69.50
18894;DHT22;9579;49.488;8.226;2022-08-01T18:17:52;29.20;69.40
18894;DHT22;9579;49.488;8.226;2022-08-01T18:20:39;29.20;69.50
18894;DHT22;9579;49.488;8.226;2022-08-01T18:23:26;29.10;69.70
18894;DHT22;9579;49.488;8.226;2022-08-01T18:26:15;29.10;69.80
18894;DHT22;9579;49.488;8.226;2022-08-01T18:29:02;29.20;70.00
18894;DHT22;9579;49.488;8.226;2022-08-01T18:31:49;29.10;69.90
18894;DHT22;9579;49.488;8.226;2022-08-01T18:34:36;29.10;69.90
18894;DHT22;9579;49.488;8.226;2022-08-01T18:37:23;28.90;70.00
18894;DHT22;9579;49.488;8.226;2022-08-01T18:40:11;29.00;70.50
18894;DHT22;9579;49.488;8.226;2022-08-01T18:42:59;28.90;70.10
18894;DHT22;9579;49.488;8.226;2022-08-01T18:45:46;28.90;70.20
18894;DHT22;9579;49.488;8.226;2022-08-01T18:48:33;28.90;70.20
18894;DHT22;9579;49.488;8.226;2022-08-01T18:51:22;28.80;70.30
18894;DHT22;9579;49.488;8.226;2022-08-01T18:54:11;28.80;70.80
18894;DHT22;9579;49.488;8.226;2022-08-01T18:56:58;28.90;70.50
18894;DHT22;9579;49.488;8.226;2022-08-01T18:59:47;28.70;70.70
18894;DHT22;9579;49.488;8.226;2022-08-01T19:02:34;28.70;70.80
18894;DHT22;9579;49.488;8.226;2022-08-01T19:05:21;28.70;71.10
18894;DHT22;9579;49.488;8.226;2022-08-01T19:08:08;28.60;71.10
18894;DHT22;9579;49.488;8.226;2022-08-01T19:10:55;28.60;71.30
18894;DHT22;9579;49.488;8.226;2022-08-01T19:13:44;28.50;71.20
18894;DHT22;9579;49.488;8.226;2022-08-01T19:16:32;28.50;71.70
18894;DHT22;9579;49.488;8.226;2022-08-01T19:19:19;28.50;72.20
18894;DHT22;9579;49.488;8.226;2022-08-01T19:22:06;28.40;72.00
18894;DHT22;9579;49.488;8.226;2022-08-01T19:24:54;28.40;72.10
18894;DHT22;9579;49.488;8.226;2022-08-01T19:27:44;28.30;72.50
18894;DHT22;9579;49.488;8.226;2022-08-01T19:30:33;28.30;72.50
18894;DHT22;9579;49.488;8.226;2022-08-01T19:33:22;28.30;72.60
18894;DHT22;9579;49.488;8.226;2022-08-01T19:36:14;28.30;72.90
18894;DHT22;9579;49.488;8.226;2022-08-01T19:39:02;28.10;72.80
18894;DHT22;9579;49.488;8.226;2022-08-01T19:41:50;28.20;72.80
18894;DHT22;9579;49.488;8.226;2022-08-01T19:44:37;28.10;72.80
18894;DHT22;9579;49.488;8.226;2022-08-01T19:47:25;28.00;73.00
18894;DHT22;9579;49.488;8.226;2022-08-01T19:50:13;28.00;73.00
18894;DHT22;9579;49.488;8.226;2022-08-01T19:53:01;28.00;73.40
18894;DHT22;9579;49.488;8.226;2022-08-01T19:55:50;28.00;73.20
18894;DHT22;9579;49.488;8.226;2022-08-01T19:58:39;27.90;73.10
18894;DHT22;9579;49.488;8.226;2022-08-01T20:01:27;27.90;73.50
18894;DHT22;9579;49.488;8.226;2022-08-01T20:04:15;27.70;73.00
18894;DHT22;9579;49.488;8.226;2022-08-01T20:07:04;27.70;73.10
18894;DHT22;9579;49.488;8.226;2022-08-01T20:09:51;27.60;73.10
18894;DHT22;9579;49.488;8.226;2022-08-01T20:12:39;27.60;73.20
18894;DHT22;9579;49.488;8.226;2022-08-01T20:15:26;27.50;73.00
18894;DHT22;9579;49.488;8.226;2022-08-01T20:18:14;27.40;72.90
18894;DHT22;9579;49.488;8.226;2022-08-01T20:21:03;27.40;72.90
18894;DHT22;9579;49.488;8.226;2022-08-01T20:23:56;27.30;72.90
18894;DHT22;9579;49.488;8.226;2022-08-01T20:26:47;27.20;72.70
18894;DHT22;9579;49.488;8.226;2022-08-01T20:29:36;27.10;73.10
18894;DHT22;9579;49.488;8.226;2022-08-01T20:32:27;27.10;73.10
18894;DHT22;9579;49.488;8.226;2022-08-01T20:35:15;27.10;72.80
18894;DHT22;9579;49.488;8.226;2022-08-01T20:38:03;27.00;72.80
18894;DHT22;9579;49.488;8.226;2022-08-01T20:40:53;27.00;72.80
18894;DHT22;9579;49.488;8.226;2022-08-01T20:43:44;26.90;72.90
18894;DHT22;9579;49.488;8.226;2022-08-01T20:46:31;26.90;73.20
18894;DHT22;9579;49.488;8.226;2022-08-01T20:49:19;26.90;72.90
18894;DHT22;9579;49.488;8.226;2022-08-01T20:52:08;26.90;73.00
18894;DHT22;9579;49.488;8.226;2022-08-01T20:54:55;26.80;73.20
18894;DHT22;9579;49.488;8.226;2022-08-01T20:57:48;26.80;73.30
18894;DHT22;9579;49.488;8.226;2022-08-01T21:00:35;26.80;73.20
18894;DHT22;9579;49.488;8.226;2022-08-01T21:03:28;26.70;73.20
18894;DHT22;9579;49.488;8.226;2022-08-01T21:06:20;26.70;73.10
18894;DHT22;9579;49.488;8.226;2022-08-01T21:09:12;26.60;73.50
18894;DHT22;9579;49.488;8.226;2022-08-01T21:12:04;26.60;73.80
18894;DHT22;9579;49.488;8.226;2022-08-01T21:14:55;26.60;73.80
18894;DHT22;9579;49.488;8.226;2022-08-01T21:17:48;26.60;73.70
18894;DHT22;9579;49.488;8.226;2022-08-01T21:20:39;26.50;73.70
18894;DHT22;9579;49.488;8.226;2022-08-01T21:23:30;26.40;73.90
18894;DHT22;9579;49.488;8.226;2022-08-01T21:26:19;26.50;74.10
18894;DHT22;9579;49.488;8.226;2022-08-01T21:29:09;26.50;73.90
18894;DHT22;9579;49.488;8.226;2022-08-01T21:31:58;26.50;73.90
18894;DHT22;9579;49.488;8.226;2022-08-01T21:35:01;26.50;73.90
18894;DHT22;9579;49.488;8.226;2022-08-01T21:37:49;26.50;74.00
18894;DHT22;9579;49.488;8.226;2022-08-01T21:40:37;26.50;74.20
18894;DHT22;9579;49.488;8.226;2022-08-01T21:43:24;26.50;73.90
18894;DHT22;9579;49.488;8.226;2022-08-01T21:46:11;26.50;73.90
18894;DHT22;9579;49.488;8.226;2022-08-01T21:49:00;26.50;74.00
18894;DHT22;9579;49.488;8.226;2022-08-01T21:51:53;26.50;74.00
18894;DHT22;9579;49.488;8.226;2022-08-01T21:54:55;26.40;74.10
18894;DHT22;9579;49.488;8.226;2022-08-01T22:01:04;26.40;74.30
18894;DHT22;9579;49.488;8.226;2022-08-01T22:03:55;26.40;74.90
18894;DHT22;9579;49.488;8.226;2022-08-01T22:06:48;26.40;74.90
18894;DHT22;9579;49.488;8.226;2022-08-01T22:09:36;26.40;74.90
18894;DHT22;9579;49.488;8.226;2022-08-01T22:12:24;26.40;75.20
18894;DHT22;9579;49.488;8.226;2022-08-01T22:15:12;26.40;74.90
18894;DHT22;9579;49.488;8.226;2022-08-01T22:18:00;26.30;75.00
18894;DHT22;9579;49.488;8.226;2022-08-01T22:20:48;26.30;75.20
18894;DHT22;9579;49.488;8.226;2022-08-01T22:23:38;26.20;75.20
18894;DHT22;9579;49.488;8.226;2022-08-01T22:26:25;26.30;75.30
18894;DHT22;9579;49.488;8.226;2022-08-01T22:29:13;26.30;75.20
